createdAt,value
2019-02-10T00:04:39.871Z,95731.11
2019-02-10T00:07:29.658Z,95728.22
2019-02-10T00:10:19.409Z,95723.00
2019-02-10T00:13:47.306Z,95702.74
2019-02-10T00:16:37.094Z,95702.38
2019-02-10T00:19:07.839Z,95714.66
2019-02-10T00:22:16.782Z,95723.30
2019-02-10T00:25:07.165Z,95719.01
2019-02-10T00:27:49.707Z,95726.93
2019-02-10T00:30:39.447Z,95722.30
2019-02-10T00:33:21.791Z,95724.83
2019-02-10T00:36:11.526Z,95720.77
2019-02-10T00:38:54.400Z,95710.66
2019-02-10T00:41:44.591Z,95728.14
2019-02-10T00:44:26.677Z,95735.92
2019-02-10T00:47:16.419Z,95732.64
2019-02-10T00:49:59.151Z,95738.06
2019-02-10T00:52:49.325Z,95704.20
2019-02-10T00:55:32.187Z,95733.96
2019-02-10T00:58:21.913Z,95719.97
2019-02-10T01:01:04.297Z,95726.61
2019-02-10T01:03:54.073Z,95717.83
2019-02-10T01:06:41.426Z,95728.14
2019-02-10T01:09:20.653Z,95721.55
2019-02-10T01:12:10.864Z,95709.70
2019-02-10T01:15:00.757Z,95707.20
2019-02-10T01:17:50.472Z,95696.15
2019-02-10T01:20:40.167Z,95698.67
2019-02-10T01:23:29.899Z,95692.68
2019-02-10T01:26:12.449Z,95687.08
2019-02-10T01:29:02.177Z,95679.52
2019-02-10T01:31:51.872Z,95651.73
2019-02-10T01:34:34.567Z,95652.70
2019-02-10T01:37:24.347Z,95670.45
2019-02-10T01:40:07.711Z,95655.33
2019-02-10T01:42:57.480Z,95624.27
2019-02-10T01:45:47.253Z,95646.23
2019-02-10T01:48:56.161Z,95640.05
2019-02-10T01:51:38.432Z,95627.64
2019-02-10T01:54:28.268Z,95628.79
2019-02-10T01:57:18.061Z,95623.36
2019-02-10T02:06:12.516Z,95593.16
2019-02-10T02:11:58.038Z,95582.13
2019-02-10T02:17:44.236Z,95560.62
2019-02-10T02:20:33.951Z,95557.35
2019-02-10T02:26:26.820Z,95537.84
2019-02-10T02:29:09.061Z,95530.48
2019-02-10T02:31:58.875Z,95528.58
2019-02-10T02:34:48.595Z,95524.87
2019-02-10T02:37:38.303Z,95511.31
2019-02-10T02:40:20.961Z,95497.16
2019-02-10T02:43:10.744Z,95482.22
2019-02-10T02:46:00.469Z,95494.84
2019-02-10T02:48:42.714Z,95484.56
2019-02-10T02:51:32.488Z,95478.94
2019-02-10T02:54:22.212Z,95475.65
2019-02-10T02:57:11.960Z,95469.45
2019-02-10T03:00:01.688Z,95444.25
2019-02-10T03:02:43.656Z,95447.55
2019-02-10T03:05:52.494Z,95420.59
2019-02-10T03:08:35.753Z,95444.64
2019-02-10T03:11:25.508Z,95435.92
2019-02-10T03:14:10.214Z,95436.29
2019-02-10T03:16:59.939Z,95411.49
2019-02-10T03:19:41.981Z,95421.95
2019-02-10T03:22:31.720Z,95414.21
2019-02-10T03:25:13.766Z,95409.77
2019-02-10T03:28:03.462Z,95403.72
2019-02-10T03:30:45.486Z,95397.72
2019-02-10T03:33:35.204Z,95402.75
2019-02-10T03:36:17.134Z,95395.94
2019-02-10T03:39:07.479Z,95391.72
2019-02-10T03:41:50.212Z,95388.59
2019-02-10T03:44:39.939Z,95363.04
2019-02-10T03:47:22.420Z,95358.77
2019-02-10T03:50:12.171Z,95373.11
2019-02-10T03:52:54.183Z,95360.72
2019-02-10T03:55:43.873Z,95352.02
2019-02-10T03:58:26.356Z,95328.11
2019-02-10T04:01:16.089Z,95322.69
2019-02-10T04:03:59.051Z,95345.73
2019-02-10T04:07:01.581Z,95338.73
2019-02-10T04:09:44.077Z,95338.00
2019-02-10T04:12:33.849Z,95348.16
2019-02-10T04:15:16.657Z,95351.44
2019-02-10T04:18:06.396Z,95343.25
2019-02-10T04:20:48.806Z,95326.02
2019-02-10T04:23:38.515Z,95327.77
2019-02-10T04:26:20.575Z,95330.67
2019-02-10T04:29:10.300Z,95293.66
2019-02-10T04:31:53.699Z,95323.69
2019-02-10T04:34:43.399Z,95315.77
2019-02-10T04:37:26.859Z,95308.41
2019-02-10T04:40:16.552Z,95302.53
2019-02-10T04:42:58.708Z,95311.45
2019-02-10T04:45:48.421Z,95305.67
2019-02-10T04:48:30.639Z,95296.23
2019-02-10T04:51:13.393Z,95285.59
2019-02-10T04:54:03.151Z,95276.33
2019-02-10T04:56:52.841Z,95283.67
2019-02-10T04:59:42.527Z,95298.52
2019-02-10T05:02:32.281Z,95294.96
2019-02-10T05:05:14.361Z,95292.83
2019-02-10T05:08:04.081Z,95288.80
2019-02-10T05:10:46.286Z,95274.30
2019-02-10T05:13:35.969Z,95290.24
2019-02-10T05:16:19.793Z,95294.70
2019-02-10T05:19:09.498Z,95284.23
2019-02-10T05:21:52.168Z,95272.12
2019-02-10T05:24:41.858Z,95250.47
2019-02-10T05:27:24.505Z,95266.97
2019-02-10T05:30:14.361Z,95264.47
2019-02-10T05:32:56.886Z,95258.48
2019-02-10T05:35:46.617Z,95263.31
2019-02-10T05:38:29.006Z,95246.30
2019-02-10T05:41:18.730Z,95252.69
2019-02-10T05:44:00.962Z,95240.67
2019-02-10T05:46:50.703Z,95258.68
2019-02-10T05:49:32.800Z,95253.84
2019-02-10T05:52:22.516Z,95242.05
2019-02-10T05:55:04.865Z,95229.06
2019-02-10T05:57:54.591Z,95227.34
2019-02-10T06:00:37.751Z,95224.05
2019-02-10T06:06:28.778Z,95224.05
2019-02-10T06:09:18.482Z,95228.89
2019-02-10T06:12:01.068Z,95219.22
2019-02-10T06:14:50.776Z,95179.36
2019-02-10T06:17:32.960Z,95199.87
2019-02-10T06:20:41.821Z,95182.23
2019-02-10T06:23:23.814Z,95208.39
2019-02-10T06:25:54.452Z,95218.25
2019-02-10T06:28:44.202Z,95213.79
2019-02-10T06:31:26.670Z,95214.95
2019-02-10T06:34:16.454Z,95209.33
2019-02-10T06:37:06.274Z,95198.88
2019-02-10T06:39:55.998Z,95205.84
2019-02-10T06:42:45.742Z,95208.16
2019-02-10T06:45:35.445Z,95212.41
2019-02-10T06:48:18.817Z,95202.72
2019-02-10T06:51:08.559Z,95215.13
2019-02-10T06:53:50.609Z,95215.47
2019-02-10T06:56:40.355Z,95195.97
2019-02-10T06:59:41.775Z,95172.37
2019-02-10T07:02:56.439Z,95175.47
2019-02-10T07:05:39.382Z,95158.64
2019-02-10T07:08:30.680Z,95170.44
2019-02-10T07:11:13.221Z,95156.71
2019-02-10T07:14:04.043Z,95144.55
2019-02-10T07:17:05.732Z,95140.09
2019-02-10T07:20:33.587Z,95140.48
2019-02-10T07:23:37.623Z,95139.70
2019-02-10T07:27:05.459Z,95130.25
2019-02-10T07:29:58.726Z,95125.60
2019-02-10T07:32:50.929Z,95129.47
2019-02-10T07:35:53.224Z,95131.39
2019-02-10T07:39:06.067Z,95137.39
2019-02-10T07:42:33.979Z,95151.52
2019-02-10T07:45:26.677Z,95150.53
2019-02-10T07:48:54.575Z,95148.63
2019-02-10T07:52:22.492Z,95131.58
2019-02-10T07:55:50.469Z,95144.34
2019-02-10T07:58:36.727Z,95125.37
2019-02-10T08:02:04.603Z,95092.67
2019-02-10T08:05:00.226Z,95105.03
2019-02-10T08:08:16.681Z,95095.52
2019-02-10T08:11:18.219Z,95082.16
2019-02-10T08:14:46.043Z,95066.27
2019-02-10T08:17:48.945Z,95037.45
2019-02-10T08:21:16.848Z,95040.12
2019-02-10T08:24:22.639Z,95044.91
2019-02-10T08:27:50.457Z,95050.95
2019-02-10T08:30:40.111Z,95066.07
2019-02-10T08:34:07.979Z,95056.58
2019-02-10T08:37:00.401Z,95053.26
2019-02-10T08:40:28.245Z,95045.48
2019-02-10T08:43:21.577Z,95044.91
2019-02-10T08:46:49.455Z,95039.80
2019-02-10T08:49:50.713Z,95029.32
2019-02-10T08:53:01.983Z,95021.52
2019-02-10T08:55:44.230Z,95039.62
2019-02-10T08:58:34.015Z,95020.93
2019-02-10T09:01:16.342Z,95027.84
2019-02-10T09:04:06.119Z,95008.89
2019-02-10T09:06:48.488Z,95009.44
2019-02-10T09:12:36.287Z,95004.62
2019-02-10T09:15:26.017Z,94997.77
2019-02-10T09:18:08.230Z,94994.94
2019-02-10T09:20:58.142Z,94993.72
2019-02-10T09:23:47.880Z,94966.02
2019-02-10T09:26:30.053Z,94962.55
2019-02-10T09:29:19.807Z,94967.92
2019-02-10T09:32:09.577Z,94960.47
2019-02-10T09:34:51.792Z,94950.94
2019-02-10T09:37:41.674Z,94953.14
2019-02-10T09:40:31.701Z,94953.59
2019-02-10T09:43:21.436Z,94946.73
2019-02-10T09:46:03.771Z,94943.84
2019-02-10T09:48:53.570Z,94947.28
2019-02-10T09:51:43.364Z,94941.48
2019-02-10T09:54:33.088Z,94937.22
2019-02-10T09:57:23.108Z,94942.58
2019-02-10T10:00:05.424Z,94914.98
2019-02-10T10:02:55.177Z,94907.24
2019-02-10T10:05:37.523Z,94923.77
2019-02-10T10:08:27.278Z,94924.22
2019-02-10T10:11:09.600Z,94909.19
2019-02-10T10:13:59.301Z,94896.41
2019-02-10T10:17:08.162Z,94889.60
2019-02-10T10:19:50.293Z,94886.31
2019-02-10T10:22:40.123Z,94851.45
2019-02-10T10:25:30.214Z,94864.16
2019-02-10T10:28:20.064Z,94864.11
2019-02-10T10:31:09.866Z,94871.44
2019-02-10T10:33:59.694Z,94879.73
2019-02-10T10:36:49.456Z,94877.23
2019-02-10T10:39:39.381Z,94862.98
2019-02-10T10:48:31.982Z,94791.94
2019-02-10T10:51:21.768Z,94820.02
2019-02-10T10:54:04.433Z,94808.75
2019-02-10T10:56:54.225Z,94801.64
2019-02-10T10:59:44.068Z,94791.89
2019-02-10T11:02:33.898Z,94799.63
2019-02-10T11:05:23.727Z,94795.50
2019-02-10T11:08:13.494Z,94787.70
2019-02-10T11:10:55.858Z,94776.52
2019-02-10T11:13:45.620Z,94787.59
2019-02-10T11:16:35.470Z,94773.84
2019-02-10T11:19:25.244Z,94757.78
2019-02-10T11:22:15.045Z,94775.05
2019-02-10T11:25:05.104Z,94743.81
2019-02-10T11:27:54.850Z,94756.13
2019-02-10T11:30:37.177Z,94708.84
2019-02-10T11:33:27.129Z,94691.77
2019-02-10T11:36:16.911Z,94671.74
2019-02-10T11:42:21.902Z,94674.23
2019-02-10T11:45:04.303Z,94666.41
2019-02-10T11:47:54.114Z,94654.17
2019-02-10T11:50:36.245Z,94659.94
2019-02-10T11:53:26.045Z,94645.88
2019-02-10T11:56:10.835Z,94632.07
2019-02-10T11:59:00.601Z,94623.30
2019-02-10T12:01:42.855Z,94619.63
2019-02-10T12:04:32.581Z,94608.00
2019-02-10T12:07:22.548Z,94594.38
2019-02-10T12:10:04.625Z,94592.50
2019-02-10T12:12:54.440Z,94582.75
2019-02-10T12:15:44.185Z,94571.78
2019-02-10T12:18:33.997Z,94590.76
2019-02-10T12:21:42.911Z,94588.73
2019-02-10T12:24:32.721Z,94593.07
2019-02-10T12:27:22.499Z,94583.69
2019-02-10T12:36:39.695Z,94611.30
2019-02-10T12:39:29.444Z,94608.11
2019-02-10T12:42:12.375Z,94597.86
2019-02-10T12:45:02.315Z,94624.58
2019-02-10T12:47:44.595Z,94629.21
2019-02-10T12:50:34.467Z,94604.69
2019-02-10T12:53:24.357Z,94599.40
2019-02-10T12:56:14.244Z,94599.55
2019-02-10T12:59:16.556Z,94598.06
2019-02-10T13:01:59.004Z,94597.03
2019-02-10T13:04:48.709Z,94552.09
2019-02-10T13:07:30.670Z,94589.27
2019-02-10T13:10:20.415Z,94598.15
2019-02-10T13:13:02.748Z,94587.80
2019-02-10T13:18:48.048Z,94553.00
2019-02-10T13:21:37.862Z,94572.63
2019-02-10T13:24:27.642Z,94568.48
2019-02-10T13:27:36.655Z,94565.87
2019-02-10T13:30:26.460Z,94558.66
2019-02-10T13:33:16.250Z,94557.05
2019-02-10T13:36:06.013Z,94575.09
2019-02-10T13:38:55.729Z,94571.09
2019-02-10T13:41:38.511Z,94545.23
2019-02-10T13:44:28.264Z,94541.34
2019-02-10T13:47:11.196Z,94525.01
2019-02-10T13:50:00.970Z,94487.98
2019-02-10T13:52:51.050Z,94498.56
2019-02-10T13:55:40.796Z,94499.92
2019-02-10T13:58:30.680Z,94505.45
2019-02-10T14:01:20.482Z,94491.25
2019-02-10T14:04:10.250Z,94478.66
2019-02-10T14:07:00.044Z,94450.06
2019-02-10T14:10:03.898Z,94416.04
2019-02-10T14:12:46.469Z,94421.63
2019-02-10T14:15:36.206Z,94436.02
2019-02-10T14:18:19.025Z,94428.44
2019-02-10T14:21:08.761Z,94404.45
2019-02-10T14:23:51.150Z,94435.61
2019-02-10T14:26:40.966Z,94446.83
2019-02-10T14:29:24.947Z,94440.95
2019-02-10T14:32:14.703Z,94430.16
2019-02-10T14:34:57.629Z,94425.04
2019-02-10T14:37:47.332Z,94418.83
2019-02-10T14:40:33.679Z,94425.30
2019-02-10T14:43:21.349Z,94426.30
2019-02-10T14:46:03.749Z,94421.81
2019-02-10T14:48:53.531Z,94417.72
2019-02-10T14:51:36.018Z,94396.53
2019-02-10T14:54:25.798Z,94423.16
2019-02-10T14:57:08.692Z,94426.06
2019-02-10T14:59:58.441Z,94416.61
2019-02-10T15:02:48.131Z,94428.53
2019-02-10T15:05:30.848Z,94427.91
2019-02-10T15:08:20.694Z,94406.65
2019-02-10T15:11:10.398Z,94396.97
2019-02-10T15:14:00.092Z,94387.52
2019-02-10T15:16:49.831Z,94396.53
2019-02-10T15:19:32.055Z,94390.06
2019-02-10T15:22:42.701Z,94390.42
2019-02-10T15:25:32.599Z,94404.45
2019-02-10T15:28:22.331Z,94403.09
2019-02-10T15:31:12.069Z,94408.97
2019-02-10T15:34:01.828Z,94401.47
2019-02-10T15:36:51.619Z,94411.00
2019-02-10T15:39:41.401Z,94418.06
2019-02-10T15:42:31.168Z,94420.71
2019-02-10T15:45:20.919Z,94440.02
2019-02-10T15:48:10.669Z,94455.07
2019-02-10T15:51:00.429Z,94464.05
2019-02-10T15:53:50.151Z,94470.56
2019-02-10T15:56:39.973Z,94464.73
2019-02-10T15:59:29.926Z,94507.78
2019-02-10T16:02:19.687Z,94515.20
2019-02-10T16:05:01.555Z,94557.39
2019-02-10T16:07:51.343Z,94589.37
2019-02-10T16:10:41.154Z,94573.33
2019-02-10T16:13:30.901Z,94584.03
2019-02-10T16:16:20.635Z,94627.16
2019-02-10T16:19:10.329Z,94610.02
2019-02-10T16:21:52.299Z,94642.55
2019-02-10T16:24:42.099Z,94677.08
2019-02-10T16:27:32.039Z,94674.23
2019-02-10T16:30:21.837Z,94671.65
2019-02-10T16:33:11.625Z,94687.57
2019-02-10T16:36:20.595Z,94685.55
2019-02-10T16:39:29.370Z,94710.05
2019-02-10T16:42:19.063Z,94727.54
2019-02-10T16:45:01.935Z,94739.70
2019-02-10T16:47:51.658Z,94712.50
2019-02-10T16:50:41.479Z,94674.85
2019-02-10T16:53:31.241Z,94701.48
2019-02-10T16:56:21.020Z,94700.70
2019-02-10T16:59:10.829Z,94711.52
2019-02-10T17:02:19.699Z,94698.44
2019-02-10T17:05:09.490Z,94725.64
2019-02-10T17:07:59.243Z,94735.66
2019-02-10T17:11:14.199Z,94758.64
2019-02-10T17:13:51.969Z,94811.00
2019-02-10T17:16:41.893Z,94836.11
2019-02-10T17:19:31.758Z,94855.63
2019-02-10T17:22:21.757Z,94879.36
2019-02-10T17:25:13.373Z,94914.04
2019-02-10T17:28:03.403Z,94912.48
2019-02-10T17:30:53.193Z,94920.34
2019-02-10T17:33:42.970Z,94947.27
2019-02-10T17:36:32.799Z,94988.50
2019-02-10T17:39:24.202Z,95014.33
2019-02-10T17:42:14.020Z,95022.95
2019-02-10T17:45:03.798Z,95009.49
2019-02-10T17:47:53.583Z,95030.70
2019-02-10T17:50:43.380Z,95025.09
2019-02-10T17:53:33.121Z,95002.30
2019-02-10T17:56:22.860Z,95021.45
2019-02-10T17:59:12.840Z,95045.42
2019-02-10T18:02:02.608Z,95057.96
2019-02-10T18:04:45.119Z,95043.92
2019-02-10T18:07:34.822Z,95041.64
2019-02-10T18:10:17.487Z,95033.96
2019-02-10T18:13:07.226Z,95049.98
2019-02-10T18:16:08.473Z,95078.93
2019-02-10T18:19:17.022Z,95081.66
2019-02-10T18:22:11.776Z,95093.87
2019-02-10T18:25:20.412Z,95086.94
2019-02-10T18:28:18.846Z,95095.81
2019-02-10T18:31:24.546Z,95080.59
2019-02-10T18:34:19.704Z,95088.34
2019-02-10T18:37:28.342Z,95069.03
2019-02-10T18:40:36.964Z,95092.17
2019-02-10T18:43:33.412Z,95084.48
2019-02-10T18:46:11.672Z,95112.49
2019-02-10T18:49:20.286Z,95154.92
2019-02-10T18:52:28.850Z,95184.06
2019-02-10T18:55:30.201Z,95201.27
2019-02-10T18:58:26.391Z,95209.43
2019-02-10T19:01:27.602Z,95203.56
2019-02-10T19:04:36.146Z,95204.34
2019-02-10T19:07:36.944Z,95223.22
2019-02-10T19:10:45.560Z,95195.20
2019-02-10T19:13:47.089Z,95209.06
2019-02-10T19:16:55.689Z,95181.03
2019-02-10T19:19:56.981Z,95209.55
2019-02-10T19:23:05.583Z,95202.75
2019-02-10T19:25:57.750Z,95199.02
2019-02-10T19:29:06.268Z,95204.11
2019-02-10T19:32:07.645Z,95204.42
2019-02-10T19:35:16.240Z,95206.52
2019-02-10T19:38:18.200Z,95219.18
2019-02-10T19:41:07.895Z,95240.22
2019-02-10T19:44:16.472Z,95271.23
2019-02-10T19:47:11.745Z,95260.82
2019-02-10T19:50:20.361Z,95243.46
2019-02-10T19:53:20.674Z,95223.91
2019-02-10T19:56:29.302Z,95223.17
2019-02-10T19:59:34.741Z,95182.09
2019-02-10T20:05:48.332Z,95202.33
2019-02-10T20:08:49.945Z,95176.70
2019-02-10T20:12:03.963Z,95173.16
2019-02-10T20:15:08.864Z,95165.41
2019-02-10T20:18:02.487Z,95156.23
2019-02-10T20:21:08.505Z,95170.20
2019-02-10T20:24:05.375Z,95134.03
2019-02-10T20:27:13.967Z,95154.18
2019-02-10T20:30:22.661Z,95157.23
2019-02-10T20:33:31.296Z,95152.57
2019-02-10T20:36:30.087Z,95172.90
2019-02-10T20:39:38.727Z,95166.51
2019-02-10T20:42:47.317Z,95159.33
2019-02-10T20:45:55.889Z,95173.64
2019-02-10T20:48:57.023Z,95178.44
2019-02-10T20:51:46.475Z,95178.40
2019-02-10T20:54:50.830Z,95186.61
2019-02-10T20:57:59.371Z,95176.86
2019-02-10T21:00:51.558Z,95174.53
2019-02-10T21:04:00.096Z,95193.59
2019-02-10T21:06:52.014Z,95204.59
2019-02-10T21:10:00.574Z,95209.62
2019-02-10T21:13:01.452Z,95186.16
2019-02-10T21:16:10.008Z,95215.06
2019-02-10T21:19:10.909Z,95234.25
2019-02-10T21:22:19.443Z,95229.02
2019-02-10T21:25:20.560Z,95211.94
2019-02-10T21:28:29.159Z,95235.52
2019-02-10T21:31:34.438Z,95226.56
2019-02-10T21:34:42.968Z,95251.78
2019-02-10T21:41:02.369Z,95261.73
2019-02-10T21:44:05.674Z,95277.77
2019-02-10T21:47:14.344Z,95280.28
2019-02-10T21:49:57.147Z,95250.34
2019-02-10T21:52:46.971Z,95274.46
2019-02-10T21:55:36.754Z,95269.23
2019-02-10T21:58:27.006Z,95288.05
2019-02-10T22:01:16.928Z,95293.22
2019-02-10T22:04:06.735Z,95291.88
2019-02-10T22:06:56.660Z,95265.88
2019-02-10T22:09:46.712Z,95286.17
2019-02-10T22:12:37.168Z,95288.67
2019-02-10T22:15:21.022Z,95280.49
2019-02-10T22:18:10.782Z,95277.02
2019-02-10T22:20:53.163Z,95279.33
2019-02-10T22:23:43.128Z,95257.79
2019-02-10T22:29:36.572Z,95285.43
2019-02-10T22:32:26.346Z,95245.28
2019-02-10T22:35:16.161Z,95277.50
2019-02-10T22:38:06.046Z,95234.80
2019-02-10T22:41:14.992Z,95279.80
2019-02-10T22:44:04.766Z,95276.80
2019-02-10T22:46:54.694Z,95290.67
2019-02-10T22:49:44.619Z,95287.17
2019-02-10T22:52:34.384Z,95284.41
2019-02-10T22:55:24.146Z,95251.22
2019-02-10T22:58:13.858Z,95289.45
2019-02-10T23:01:06.138Z,95287.42
2019-02-10T23:03:56.010Z,95278.16
2019-02-10T23:06:46.171Z,95296.16
2019-02-10T23:09:36.153Z,95279.12
2019-02-10T23:12:26.170Z,95273.70
2019-02-10T23:15:15.954Z,95297.89
2019-02-10T23:18:06.086Z,95294.81
2019-02-10T23:20:56.213Z,95289.11
2019-02-10T23:23:45.950Z,95279.12
2019-02-10T23:26:35.753Z,95298.41
2019-02-10T23:29:18.528Z,95289.71
2019-02-10T23:32:08.563Z,95267.00
2019-02-10T23:34:51.379Z,95309.69
2019-02-10T23:37:41.877Z,95310.34
2019-02-10T23:40:31.678Z,95321.32
2019-02-10T23:43:21.157Z,95282.13
2019-02-10T23:46:10.969Z,95306.44
2019-02-10T23:49:00.683Z,95307.53
2019-02-10T23:51:43.269Z,95312.84
2019-02-10T23:54:33.078Z,95325.52
2019-02-10T23:57:22.894Z,95333.33
